sensor_id;sensor_type;location;lat;lon;timestamp;pressure;altitude;pressure_sealevel;temperature;humidity
44138;BME280;29800;55.942;37.314;2023-08-07T00:01:10;99447.53;;;23.17;69.34
44138;BME280;29800;55.942;37.314;2023-08-07T00:03:36;99457.53;;;23.18;69.34
44138;BME280;29800;55.942;37.314;2023-08-07T00:06:03;99450.81;;;23.19;68.88
44138;BME280;29800;55.942;37.314;2023-08-07T00:08:29;99454.69;;;23.27;67.65
44138;BME280;29800;55.942;37.314;2023-08-07T00:11:10;99454.13;;;23.34;68.45
44138;BME280;29800;55.942;37.314;2023-08-07T00:13:37;99459.72;;;23.34;67.65
44138;BME280;29800;55.942;37.314;2023-08-07T00:16:03;99463.09;;;23.39;66.94
44138;BME280;29800;55.942;37.314;2023-08-07T00:18:30;99458.81;;;23.42;66.91
44138;BME280;29800;55.942;37.314;2023-08-07T00:20:56;99457.84;;;23.38;67.76
44138;BME280;29800;55.942;37.314;2023-08-07T00:23:22;99456.03;;;23.42;67.00
44138;BME280;29800;55.942;37.314;2023-08-07T00:25:48;99456.72;;;23.39;67.59
44138;BME280;29800;55.942;37.314;2023-08-07T00:28:15;99456.50;;;23.44;67.07
44138;BME280;29800;55.942;37.314;2023-08-07T00:30:41;99453.22;;;23.42;67.21
44138;BME280;29800;55.942;37.314;2023-08-07T00:33:08;99456.16;;;23.45;66.87
44138;BME280;29800;55.942;37.314;2023-08-07T00:35:35;99450.91;;;23.44;66.79
44138;BME280;29800;55.942;37.314;2023-08-07T00:38:02;99456.50;;;23.44;66.80
44138;BME280;29800;55.942;37.314;2023-08-07T00:40:36;99448.56;;;23.46;66.69
44138;BME280;29800;55.942;37.314;2023-08-07T00:43:02;99456.16;;;23.45;66.73
44138;BME280;29800;55.942;37.314;2023-08-07T00:45:29;99448.31;;;23.39;66.49
44138;BME280;29800;55.942;37.314;2023-08-07T00:47:55;99453.44;;;23.37;66.93
44138;BME280;29800;55.942;37.314;2023-08-07T00:50:22;99456.91;;;23.34;67.25
44138;BME280;29800;55.942;37.314;2023-08-07T00:52:48;99451.34;;;23.34;66.69
44138;BME280;29800;55.942;37.314;2023-08-07T00:55:14;99447.25;;;23.31;67.08
44138;BME280;29800;55.942;37.314;2023-08-07T00:57:41;99439.34;;;23.33;67.46
44138;BME280;29800;55.942;37.314;2023-08-07T01:00:07;99442.75;;;23.39;66.98
44138;BME280;29800;55.942;37.314;2023-08-07T01:02:34;99444.50;;;23.43;66.97
44138;BME280;29800;55.942;37.314;2023-08-07T01:05:01;99442.19;;;23.45;66.80
44138;BME280;29800;55.942;37.314;2023-08-07T01:07:30;99447.56;;;23.51;66.47
44138;BME280;29800;55.942;37.314;2023-08-07T01:09:57;99440.81;;;23.52;66.38
44138;BME280;29800;55.942;37.314;2023-08-07T01:12:36;99439.28;;;23.54;66.42
44138;BME280;29800;55.942;37.314;2023-08-07T01:15:22;99437.69;;;23.53;66.83
44138;BME280;29800;55.942;37.314;2023-08-07T01:17:52;99436.59;;;23.45;67.10
44138;BME280;29800;55.942;37.314;2023-08-07T01:20:19;99427.75;;;23.43;66.89
44138;BME280;29800;55.942;37.314;2023-08-07T01:22:46;99425.53;;;23.37;67.18
44138;BME280;29800;55.942;37.314;2023-08-07T01:25:12;99428.31;;;23.37;67.42
44138;BME280;29800;55.942;37.314;2023-08-07T01:27:50;99427.75;;;23.43;67.15
44138;BME280;29800;55.942;37.314;2023-08-07T01:30:40;99429.50;;;23.48;67.21
44138;BME280;29800;55.942;37.314;2023-08-07T01:33:32;99423.91;;;23.48;67.34
44138;BME280;29800;55.942;37.314;2023-08-07T01:36:02;99422.50;;;23.42;66.91
44138;BME280;29800;55.942;37.314;2023-08-07T01:38:33;99430.97;;;23.33;67.70
44138;BME280;29800;55.942;37.314;2023-08-07T01:41:01;99421.78;;;23.33;67.14
44138;BME280;29800;55.942;37.314;2023-08-07T01:43:28;99418.63;;;23.34;67.64
44138;BME280;29800;55.942;37.314;2023-08-07T01:45:54;99415.03;;;23.34;67.07
44138;BME280;29800;55.942;37.314;2023-08-07T01:48:21;99419.03;;;23.45;67.22
44138;BME280;29800;55.942;37.314;2023-08-07T01:50:47;99415.06;;;23.46;66.86
44138;BME280;29800;55.942;37.314;2023-08-07T01:53:13;99418.31;;;23.48;67.31
44138;BME280;29800;55.942;37.314;2023-08-07T01:55:40;99413.00;;;23.55;67.11
44138;BME280;29800;55.942;37.314;2023-08-07T01:58:06;99416.25;;;23.57;67.25
44138;BME280;29800;55.942;37.314;2023-08-07T02:00:32;99411.47;;;23.58;67.07
44138;BME280;29800;55.942;37.314;2023-08-07T02:02:59;99414.63;;;23.56;67.20
44138;BME280;29800;55.942;37.314;2023-08-07T02:05:26;99414.84;;;23.51;67.26
44138;BME280;29800;55.942;37.314;2023-08-07T02:07:53;99406.47;;;23.51;66.94
44138;BME280;29800;55.942;37.314;2023-08-07T02:10:22;99414.63;;;23.56;67.46
44138;BME280;29800;55.942;37.314;2023-08-07T02:12:49;99408.34;;;23.47;67.23
44138;BME280;29800;55.942;37.314;2023-08-07T02:15:15;99412.41;;;23.49;67.10
44138;BME280;29800;55.942;37.314;2023-08-07T02:17:42;99414.13;;;23.42;67.82
44138;BME280;29800;55.942;37.314;2023-08-07T02:20:09;99419.16;;;23.48;67.84
44138;BME280;29800;55.942;37.314;2023-08-07T02:22:36;99413.22;;;23.50;67.41
44138;BME280;29800;55.942;37.314;2023-08-07T02:25:02;99413.13;;;23.59;67.29
44138;BME280;29800;55.942;37.314;2023-08-07T02:27:31;99412.19;;;23.55;66.73
44138;BME280;29800;55.942;37.314;2023-08-07T02:29:57;99412.44;;;23.62;68.02
44138;BME280;29800;55.942;37.314;2023-08-07T02:32:23;99415.91;;;23.46;67.54
44138;BME280;29800;55.942;37.314;2023-08-07T02:34:50;99410.03;;;23.39;66.30
44138;BME280;29800;55.942;37.314;2023-08-07T02:37:16;99411.41;;;23.33;65.10
44138;BME280;29800;55.942;37.314;2023-08-07T02:39:43;99410.81;;;23.27;65.38
44138;BME280;29800;55.942;37.314;2023-08-07T02:42:10;99412.19;;;23.21;63.71
44138;BME280;29800;55.942;37.314;2023-08-07T02:44:36;99410.75;;;23.15;63.52
44138;BME280;29800;55.942;37.314;2023-08-07T02:47:02;99406.56;;;23.09;63.13
44138;BME280;29800;55.942;37.314;2023-08-07T02:49:29;99411.16;;;23.05;63.86
44138;BME280;29800;55.942;37.314;2023-08-07T02:51:56;99416.63;;;23.01;64.56
44138;BME280;29800;55.942;37.314;2023-08-07T02:54:22;99409.72;;;22.99;64.55
44138;BME280;29800;55.942;37.314;2023-08-07T02:56:48;99412.72;;;22.93;65.00
44138;BME280;29800;55.942;37.314;2023-08-07T02:59:15;99411.91;;;22.93;62.33
44138;BME280;29800;55.942;37.314;2023-08-07T03:01:43;99421.09;;;22.93;66.69
44138;BME280;29800;55.942;37.314;2023-08-07T03:04:10;99410.81;;;22.85;64.84
44138;BME280;29800;55.942;37.314;2023-08-07T03:06:36;99408.03;;;22.85;67.14
44138;BME280;29800;55.942;37.314;2023-08-07T03:09:03;99409.88;;;22.81;66.28
44138;BME280;29800;55.942;37.314;2023-08-07T03:11:29;99410.09;;;22.76;64.02
44138;BME280;29800;55.942;37.314;2023-08-07T03:13:56;99408.47;;;22.75;64.97
44138;BME280;29800;55.942;37.314;2023-08-07T03:16:22;99404.53;;;22.76;65.29
44138;BME280;29800;55.942;37.314;2023-08-07T03:18:48;99398.94;;;22.76;67.19
44138;BME280;29800;55.942;37.314;2023-08-07T03:21:15;99401.72;;;22.76;65.64
44138;BME280;29800;55.942;37.314;2023-08-07T03:23:41;99406.13;;;22.77;65.31
44138;BME280;29800;55.942;37.314;2023-08-07T03:26:10;99400.56;;;22.77;67.56
44138;BME280;29800;55.942;37.314;2023-08-07T03:28:38;99403.34;;;22.77;66.91
44138;BME280;29800;55.942;37.314;2023-08-07T03:31:05;99404.53;;;22.76;67.52
44138;BME280;29800;55.942;37.314;2023-08-07T03:33:35;99406.97;;;22.78;68.20
44138;BME280;29800;55.942;37.314;2023-08-07T03:36:02;99407.31;;;22.76;67.29
44138;BME280;29800;55.942;37.314;2023-08-07T03:38:28;99401.03;;;22.79;67.73
44138;BME280;29800;55.942;37.314;2023-08-07T03:40:56;99406.09;;;22.86;66.66
44138;BME280;29800;55.942;37.314;2023-08-07T03:43:23;99405.19;;;22.94;67.96
44138;BME280;29800;55.942;37.314;2023-08-07T03:45:56;99413.00;;;23.01;69.34
44138;BME280;29800;55.942;37.314;2023-08-07T03:48:23;99402.44;;;23.06;67.59
44138;BME280;29800;55.942;37.314;2023-08-07T03:50:49;99407.97;;;23.15;67.62
44138;BME280;29800;55.942;37.314;2023-08-07T03:53:18;99409.41;;;23.21;67.82
44138;BME280;29800;55.942;37.314;2023-08-07T03:55:50;99404.78;;;23.25;68.66
44138;BME280;29800;55.942;37.314;2023-08-07T03:58:20;99402.44;;;23.27;67.97
44138;BME280;29800;55.942;37.314;2023-08-07T04:00:46;99405.03;;;23.33;68.56
44138;BME280;29800;55.942;37.314;2023-08-07T04:03:12;99403.66;;;23.39;68.50
44138;BME280;29800;55.942;37.314;2023-08-07T04:05:39;99401.19;;;23.37;68.14
44138;BME280;29800;55.942;37.314;2023-08-07T04:08:07;99398.31;;;23.46;67.85
44138;BME280;29800;55.942;37.314;2023-08-07T04:10:34;99404.84;;;23.50;68.24
44138;BME280;29800;55.942;37.314;2023-08-07T04:13:00;99408.09;;;23.52;68.46
44138;BME280;29800;55.942;37.314;2023-08-07T04:15:26;99404.28;;;23.57;68.30
44138;BME280;29800;55.942;37.314;2023-08-07T04:17:54;99408.13;;;23.64;67.51
44138;BME280;29800;55.942;37.314;2023-08-07T04:20:20;99405.59;;;23.72;67.49
44138;BME280;29800;55.942;37.314;2023-08-07T04:22:47;99404.22;;;23.78;66.69
44138;BME280;29800;55.942;37.314;2023-08-07T04:25:13;99398.88;;;23.85;67.07
44138;BME280;29800;55.942;37.314;2023-08-07T04:27:40;99404.00;;;23.95;66.76
44138;BME280;29800;55.942;37.314;2023-08-07T04:30:07;99407.97;;;24.07;65.92
44138;BME280;29800;55.942;37.314;2023-08-07T04:32:33;99402.03;;;24.08;65.95
44138;BME280;29800;55.942;37.314;2023-08-07T04:35:02;99407.88;;;24.15;65.78
44138;BME280;29800;55.942;37.314;2023-08-07T04:37:29;99405.31;;;24.22;65.58
44138;BME280;29800;55.942;37.314;2023-08-07T04:39:56;99400.28;;;24.28;65.33
44138;BME280;29800;55.942;37.314;2023-08-07T04:42:22;99400.03;;;24.33;65.25
44138;BME280;29800;55.942;37.314;2023-08-07T04:44:49;99394.25;;;24.38;65.33
44138;BME280;29800;55.942;37.314;2023-08-07T04:47:15;99400.03;;;24.46;64.76
44138;BME280;29800;55.942;37.314;2023-08-07T04:49:42;99399.44;;;24.52;64.46
44138;BME280;29800;55.942;37.314;2023-08-07T04:52:08;99392.94;;;24.61;64.16
44138;BME280;29800;55.942;37.314;2023-08-07T04:54:34;99395.84;;;24.64;64.10
44138;BME280;29800;55.942;37.314;2023-08-07T04:57:01;99397.69;;;24.72;63.78
44138;BME280;29800;55.942;37.314;2023-08-07T04:59:27;99390.69;;;24.79;63.78
44138;BME280;29800;55.942;37.314;2023-08-07T05:01:55;99389.28;;;24.85;63.32
44138;BME280;29800;55.942;37.314;2023-08-07T05:04:22;99384.72;;;24.92;62.86
44138;BME280;29800;55.942;37.314;2023-08-07T05:06:48;99385.97;;;24.95;61.67
44138;BME280;29800;55.942;37.314;2023-08-07T05:09:14;99386.53;;;25.01;62.00
44138;BME280;29800;55.942;37.314;2023-08-07T05:11:40;99385.81;;;25.04;61.66
44138;BME280;29800;55.942;37.314;2023-08-07T05:14:07;99375.53;;;25.08;62.22
44138;BME280;29800;55.942;37.314;2023-08-07T05:16:33;99392.53;;;25.15;61.42
44138;BME280;29800;55.942;37.314;2023-08-07T05:18:59;99381.91;;;25.21;59.93
44138;BME280;29800;55.942;37.314;2023-08-07T05:21:26;99374.53;;;25.28;60.00
44138;BME280;29800;55.942;37.314;2023-08-07T05:23:52;99379.41;;;25.31;59.36
44138;BME280;29800;55.942;37.314;2023-08-07T05:26:21;99369.03;;;25.32;59.67
44138;BME280;29800;55.942;37.314;2023-08-07T05:28:47;99376.47;;;25.40;59.06
44138;BME280;29800;55.942;37.314;2023-08-07T05:31:14;99373.41;;;25.45;58.82
44138;BME280;29800;55.942;37.314;2023-08-07T05:33:40;99369.16;;;25.52;58.11
44138;BME280;29800;55.942;37.314;2023-08-07T05:36:06;99368.91;;;25.57;57.52
44138;BME280;29800;55.942;37.314;2023-08-07T05:38:32;99361.81;;;25.63;57.15
44138;BME280;29800;55.942;37.314;2023-08-07T05:40:59;99357.94;;;25.67;57.14
44138;BME280;29800;55.942;37.314;2023-08-07T05:43:25;99360.88;;;25.71;57.70
44138;BME280;29800;55.942;37.314;2023-08-07T05:45:51;99357.78;;;25.76;56.08
44138;BME280;29800;55.942;37.314;2023-08-07T05:48:17;99363.84;;;25.78;56.23
44138;BME280;29800;55.942;37.314;2023-08-07T05:50:43;99347.47;;;25.80;56.55
44138;BME280;29800;55.942;37.314;2023-08-07T05:53:10;99348.81;;;25.86;55.74
44138;BME280;29800;55.942;37.314;2023-08-07T05:55:39;99350.63;;;25.95;57.00
44138;BME280;29800;55.942;37.314;2023-08-07T05:58:07;99345.22;;;26.02;57.19
44138;BME280;29800;55.942;37.314;2023-08-07T06:00:33;99346.94;;;26.07;55.77
44138;BME280;29800;55.942;37.314;2023-08-07T06:02:59;99344.75;;;26.16;55.29
44138;BME280;29800;55.942;37.314;2023-08-07T06:05:26;99345.72;;;26.23;54.41
44138;BME280;29800;55.942;37.314;2023-08-07T06:07:52;99343.47;;;26.29;53.54
44138;BME280;29800;55.942;37.314;2023-08-07T06:10:19;99341.16;;;26.35;53.31
44138;BME280;29800;55.942;37.314;2023-08-07T06:12:46;99342.00;;;26.35;53.45
44138;BME280;29800;55.942;37.314;2023-08-07T06:15:12;99342.88;;;26.39;52.19
44138;BME280;29800;55.942;37.314;2023-08-07T06:17:39;99328.47;;;26.41;51.87
44138;BME280;29800;55.942;37.314;2023-08-07T06:20:08;99333.44;;;26.48;52.38
44138;BME280;29800;55.942;37.314;2023-08-07T06:22:35;99342.41;;;26.53;52.00
44138;BME280;29800;55.942;37.314;2023-08-07T06:25:01;99336.22;;;26.64;52.16
44138;BME280;29800;55.942;37.314;2023-08-07T06:27:29;99335.94;;;26.69;51.87
44138;BME280;29800;55.942;37.314;2023-08-07T06:29:57;99334.91;;;26.77;51.24
44138;BME280;29800;55.942;37.314;2023-08-07T06:32:24;99337.41;;;26.82;51.79
44138;BME280;29800;55.942;37.314;2023-08-07T06:34:51;99327.06;;;26.86;51.76
44138;BME280;29800;55.942;37.314;2023-08-07T06:37:18;99338.88;;;26.95;51.69
44138;BME280;29800;55.942;37.314;2023-08-07T06:39:44;99336.16;;;26.99;51.60
44138;BME280;29800;55.942;37.314;2023-08-07T06:42:12;99330.31;;;27.08;51.03
44138;BME280;29800;55.942;37.314;2023-08-07T06:44:42;99337.16;;;27.10;51.20
44138;BME280;29800;55.942;37.314;2023-08-07T06:47:08;99327.63;;;27.15;50.43
44138;BME280;29800;55.942;37.314;2023-08-07T06:49:35;99336.56;;;27.21;51.11
44138;BME280;29800;55.942;37.314;2023-08-07T06:52:02;99331.44;;;27.26;51.02
44138;BME280;29800;55.942;37.314;2023-08-07T06:54:29;99329.91;;;27.29;50.33
44138;BME280;29800;55.942;37.314;2023-08-07T06:56:55;99331.16;;;27.31;49.80
44138;BME280;29800;55.942;37.314;2023-08-07T06:59:22;99326.38;;;27.32;49.11
44138;BME280;29800;55.942;37.314;2023-08-07T07:01:49;99327.19;;;27.32;48.64
44138;BME280;29800;55.942;37.314;2023-08-07T07:04:15;99332.88;;;27.36;48.42
44138;BME280;29800;55.942;37.314;2023-08-07T07:06:42;99324.94;;;27.42;48.12
44138;BME280;29800;55.942;37.314;2023-08-07T07:09:08;99322.19;;;27.45;47.33
44138;BME280;29800;55.942;37.314;2023-08-07T07:11:34;99329.88;;;27.48;47.52
44138;BME280;29800;55.942;37.314;2023-08-07T07:14:01;99317.22;;;27.58;49.10
44138;BME280;29800;55.942;37.314;2023-08-07T07:16:30;99325.06;;;27.72;48.67
44138;BME280;29800;55.942;37.314;2023-08-07T07:18:56;99313.16;;;27.82;48.27
44138;BME280;29800;55.942;37.314;2023-08-07T07:21:24;99313.00;;;27.95;47.11
44138;BME280;29800;55.942;37.314;2023-08-07T07:23:50;99300.63;;;27.99;46.57
44138;BME280;29800;55.942;37.314;2023-08-07T07:26:16;99311.13;;;28.02;46.78
44138;BME280;29800;55.942;37.314;2023-08-07T07:28:43;99313.28;;;28.13;46.34
44138;BME280;29800;55.942;37.314;2023-08-07T07:31:09;99307.59;;;28.09;45.65
44138;BME280;29800;55.942;37.314;2023-08-07T07:33:37;99308.47;;;28.13;46.01
44138;BME280;29800;55.942;37.314;2023-08-07T07:36:05;99298.78;;;28.11;46.24
44138;BME280;29800;55.942;37.314;2023-08-07T07:38:32;99295.66;;;28.16;45.59
44138;BME280;29800;55.942;37.314;2023-08-07T07:41:01;99304.19;;;28.23;46.08
44138;BME280;29800;55.942;37.314;2023-08-07T07:43:28;99305.34;;;28.22;45.36
44138;BME280;29800;55.942;37.314;2023-08-07T07:45:55;99296.25;;;28.29;46.01
44138;BME280;29800;55.942;37.314;2023-08-07T07:48:21;99303.84;;;28.28;45.29
44138;BME280;29800;55.942;37.314;2023-08-07T07:50:48;99295.78;;;28.27;44.85
44138;BME280;29800;55.942;37.314;2023-08-07T07:53:14;99301.16;;;28.35;45.08
44138;BME280;29800;55.942;37.314;2023-08-07T07:55:40;99289.50;;;28.37;44.75
44138;BME280;29800;55.942;37.314;2023-08-07T07:58:06;99296.88;;;28.45;44.13
44138;BME280;29800;55.942;37.314;2023-08-07T08:00:35;99292.94;;;28.53;44.98
44138;BME280;29800;55.942;37.314;2023-08-07T08:03:03;99290.50;;;28.52;44.44
44138;BME280;29800;55.942;37.314;2023-08-07T08:05:29;99297.88;;;28.60;44.32
44138;BME280;29800;55.942;37.314;2023-08-07T08:07:56;99285.47;;;28.65;43.65
44138;BME280;29800;55.942;37.314;2023-08-07T08:10:22;99292.28;;;28.64;43.38
44138;BME280;29800;55.942;37.314;2023-08-07T08:12:48;99293.13;;;28.68;43.33
44138;BME280;29800;55.942;37.314;2023-08-07T08:15:14;99284.75;;;28.71;43.36
44138;BME280;29800;55.942;37.314;2023-08-07T08:17:41;99277.31;;;28.90;44.02
44138;BME280;29800;55.942;37.314;2023-08-07T08:20:08;99279.00;;;28.98;43.51
44138;BME280;29800;55.942;37.314;2023-08-07T08:22:34;99285.97;;;29.08;43.79
44138;BME280;29800;55.942;37.314;2023-08-07T08:25:01;99282.81;;;29.17;42.89
44138;BME280;29800;55.942;37.314;2023-08-07T08:27:30;99281.28;;;29.19;42.57
44138;BME280;29800;55.942;37.314;2023-08-07T08:29:56;99265.63;;;29.25;42.88
44138;BME280;29800;55.942;37.314;2023-08-07T08:32:22;99280.19;;;29.31;42.50
44138;BME280;29800;55.942;37.314;2023-08-07T08:34:49;99278.53;;;29.30;42.30
44138;BME280;29800;55.942;37.314;2023-08-07T08:37:16;99259.28;;;29.36;42.39
44138;BME280;29800;55.942;37.314;2023-08-07T08:39:42;99269.03;;;29.45;43.00
44138;BME280;29800;55.942;37.314;2023-08-07T08:42:11;99263.47;;;29.56;41.35
44138;BME280;29800;55.942;37.314;2023-08-07T08:44:42;99263.13;;;29.61;41.29
44138;BME280;29800;55.942;37.314;2023-08-07T08:47:11;99264.72;;;29.59;42.33
44138;BME280;29800;55.942;37.314;2023-08-07T08:49:45;99253.84;;;29.61;42.48
44138;BME280;29800;55.942;37.314;2023-08-07T08:52:12;99259.97;;;29.66;42.19
44138;BME280;29800;55.942;37.314;2023-08-07T08:54:43;99255.53;;;29.69;43.01
44138;BME280;29800;55.942;37.314;2023-08-07T08:57:11;99256.06;;;29.82;41.70
44138;BME280;29800;55.942;37.314;2023-08-07T08:59:37;99269.22;;;29.67;40.84
44138;BME280;29800;55.942;37.314;2023-08-07T09:02:04;99250.53;;;29.48;40.59
44138;BME280;29800;55.942;37.314;2023-08-07T09:04:32;99249.22;;;29.38;40.54
44138;BME280;29800;55.942;37.314;2023-08-07T09:06:58;99247.72;;;29.51;40.39
44138;BME280;29800;55.942;37.314;2023-08-07T09:09:25;99249.84;;;29.62;39.85
44138;BME280;29800;55.942;37.314;2023-08-07T09:11:55;99246.59;;;29.60;39.22
44138;BME280;29800;55.942;37.314;2023-08-07T09:14:26;99248.94;;;29.50;39.01
44138;BME280;29800;55.942;37.314;2023-08-07T09:16:59;99243.94;;;29.29;39.51
44138;BME280;29800;55.942;37.314;2023-08-07T09:19:27;99240.72;;;29.27;40.77
44138;BME280;29800;55.942;37.314;2023-08-07T09:21:53;99231.66;;;29.07;40.19
44138;BME280;29800;55.942;37.314;2023-08-07T09:24:20;99233.22;;;29.05;40.34
44138;BME280;29800;55.942;37.314;2023-08-07T09:26:48;99235.88;;;29.28;41.85
44138;BME280;29800;55.942;37.314;2023-08-07T09:29:16;99231.97;;;29.43;41.02
44138;BME280;29800;55.942;37.314;2023-08-07T09:31:45;99233.63;;;29.51;42.33
44138;BME280;29800;55.942;37.314;2023-08-07T09:34:12;99220.91;;;29.68;40.09
44138;BME280;29800;55.942;37.314;2023-08-07T09:36:41;99218.50;;;29.74;39.66
44138;BME280;29800;55.942;37.314;2023-08-07T09:39:07;99214.66;;;30.00;40.05
44138;BME280;29800;55.942;37.314;2023-08-07T09:41:33;99216.84;;;29.66;38.34
44138;BME280;29800;55.942;37.314;2023-08-07T09:44:06;99222.34;;;30.07;41.90
44138;BME280;29800;55.942;37.314;2023-08-07T09:46:41;99216.38;;;30.19;40.28
44138;BME280;29800;55.942;37.314;2023-08-07T09:49:08;99220.47;;;30.26;40.83
44138;BME280;29800;55.942;37.314;2023-08-07T09:51:53;99213.97;;;30.18;39.28
44138;BME280;29800;55.942;37.314;2023-08-07T09:54:20;99216.69;;;30.00;39.61
44138;BME280;29800;55.942;37.314;2023-08-07T09:56:47;99212.19;;;29.84;39.60
44138;BME280;29800;55.942;37.314;2023-08-07T09:59:13;99216.16;;;29.80;39.89
44138;BME280;29800;55.942;37.314;2023-08-07T10:01:40;99207.94;;;29.57;38.97
44138;BME280;29800;55.942;37.314;2023-08-07T10:04:10;99213.44;;;29.39;39.10
44138;BME280;29800;55.942;37.314;2023-08-07T10:06:43;99201.81;;;29.47;41.09
44138;BME280;29800;55.942;37.314;2023-08-07T10:09:09;99194.66;;;29.61;39.81
44138;BME280;29800;55.942;37.314;2023-08-07T10:11:37;99204.53;;;29.37;38.73
44138;BME280;29800;55.942;37.314;2023-08-07T10:14:04;99202.34;;;29.64;40.91
44138;BME280;29800;55.942;37.314;2023-08-07T10:16:31;99190.16;;;29.49;38.76
44138;BME280;29800;55.942;37.314;2023-08-07T10:18:58;99185.03;;;29.69;38.61
44138;BME280;29800;55.942;37.314;2023-08-07T10:21:25;99189.19;;;29.82;38.32
44138;BME280;29800;55.942;37.314;2023-08-07T10:23:53;99190.63;;;29.58;37.13
44138;BME280;29800;55.942;37.314;2023-08-07T10:26:21;99191.81;;;29.54;36.81
44138;BME280;29800;55.942;37.314;2023-08-07T10:28:50;99199.22;;;29.76;38.91
44138;BME280;29800;55.942;37.314;2023-08-07T10:31:20;99189.88;;;29.65;36.29
44138;BME280;29800;55.942;37.314;2023-08-07T10:33:48;99186.97;;;29.58;36.54
44138;BME280;29800;55.942;37.314;2023-08-07T10:36:16;99182.22;;;29.69;36.71
44138;BME280;29800;55.942;37.314;2023-08-07T10:38:43;99181.69;;;29.45;36.08
44138;BME280;29800;55.942;37.314;2023-08-07T10:41:12;99186.41;;;29.34;37.58
44138;BME280;29800;55.942;37.314;2023-08-07T10:43:47;99176.25;;;29.22;38.21
44138;BME280;29800;55.942;37.314;2023-08-07T10:46:20;99168.88;;;29.10;36.85
44138;BME280;29800;55.942;37.314;2023-08-07T10:48:54;99169.09;;;29.32;39.54
44138;BME280;29800;55.942;37.314;2023-08-07T10:51:29;99161.19;;;29.56;39.96
44138;BME280;29800;55.942;37.314;2023-08-07T10:53:59;99149.94;;;29.56;37.35
44138;BME280;29800;55.942;37.314;2023-08-07T10:56:32;99154.66;;;29.41;37.31
44138;BME280;29800;55.942;37.314;2023-08-07T10:59:10;99153.00;;;29.36;36.49
44138;BME280;29800;55.942;37.314;2023-08-07T11:01:41;99155.13;;;29.02;36.34
44138;BME280;29800;55.942;37.314;2023-08-07T11:04:12;99142.47;;;28.81;36.55
44138;BME280;29800;55.942;37.314;2023-08-07T11:06:40;99149.38;;;28.91;38.18
44138;BME280;29800;55.942;37.314;2023-08-07T11:09:09;99143.41;;;28.96;36.81
44138;BME280;29800;55.942;37.314;2023-08-07T11:11:39;99137.44;;;29.05;38.94
44138;BME280;29800;55.942;37.314;2023-08-07T11:14:07;99138.44;;;29.23;38.86
44138;BME280;29800;55.942;37.314;2023-08-07T11:16:34;99134.88;;;28.85;36.91
44138;BME280;29800;55.942;37.314;2023-08-07T11:19:01;99133.41;;;28.61;36.61
44138;BME280;29800;55.942;37.314;2023-08-07T11:21:28;99129.94;;;28.37;37.65
44138;BME280;29800;55.942;37.314;2023-08-07T11:23:54;99136.03;;;28.43;39.08
44138;BME280;29800;55.942;37.314;2023-08-07T11:26:21;99120.31;;;28.38;36.99
44138;BME280;29800;55.942;37.314;2023-08-07T11:28:49;99123.56;;;28.82;39.05
44138;BME280;29800;55.942;37.314;2023-08-07T11:31:15;99108.50;;;29.04;38.22
44138;BME280;29800;55.942;37.314;2023-08-07T11:33:43;99115.88;;;29.20;36.75
44138;BME280;29800;55.942;37.314;2023-08-07T11:36:13;99116.59;;;29.13;39.27
44138;BME280;29800;55.942;37.314;2023-08-07T11:38:42;99109.88;;;29.25;40.26
44138;BME280;29800;55.942;37.314;2023-08-07T11:41:10;99100.63;;;29.28;37.69
44138;BME280;29800;55.942;37.314;2023-08-07T11:43:38;99099.81;;;29.24;37.64
44138;BME280;29800;55.942;37.314;2023-08-07T11:46:08;99105.91;;;29.37;39.55
44138;BME280;29800;55.942;37.314;2023-08-07T11:48:37;99101.53;;;29.46;38.50
44138;BME280;29800;55.942;37.314;2023-08-07T11:51:04;99103.16;;;29.47;37.19
44138;BME280;29800;55.942;37.314;2023-08-07T11:53:33;99095.63;;;29.10;36.57
44138;BME280;29800;55.942;37.314;2023-08-07T11:56:10;99085.13;;;29.04;36.55
44138;BME280;29800;55.942;37.314;2023-08-07T11:58:41;99095.19;;;29.01;38.41
44138;BME280;29800;55.942;37.314;2023-08-07T12:01:22;99087.69;;;29.20;38.91
44138;BME280;29800;55.942;37.314;2023-08-07T12:03:56;99081.03;;;28.94;36.17
44138;BME280;29800;55.942;37.314;2023-08-07T12:06:24;99081.91;;;29.05;37.88
44138;BME280;29800;55.942;37.314;2023-08-07T12:08:55;99080.69;;;28.99;37.46
44138;BME280;29800;55.942;37.314;2023-08-07T12:11:22;99085.63;;;29.17;38.42
44138;BME280;29800;55.942;37.314;2023-08-07T12:13:51;99062.56;;;29.00;36.74
44138;BME280;29800;55.942;37.314;2023-08-07T12:16:18;99065.88;;;29.09;38.50
44138;BME280;29800;55.942;37.314;2023-08-07T12:18:49;99071.47;;;29.06;37.08
44138;BME280;29800;55.942;37.314;2023-08-07T12:21:22;99056.34;;;29.25;37.62
44138;BME280;29800;55.942;37.314;2023-08-07T12:23:50;99057.31;;;29.54;39.35
44138;BME280;29800;55.942;37.314;2023-08-07T12:26:17;99057.31;;;29.54;38.37
44138;BME280;29800;55.942;37.314;2023-08-07T12:28:44;99048.13;;;29.75;38.91
44138;BME280;29800;55.942;37.314;2023-08-07T12:31:10;99044.19;;;29.87;37.00
44138;BME280;29800;55.942;37.314;2023-08-07T12:33:36;99042.25;;;30.09;37.64
44138;BME280;29800;55.942;37.314;2023-08-07T12:36:03;99047.91;;;30.23;38.08
44138;BME280;29800;55.942;37.314;2023-08-07T12:38:29;99044.06;;;29.65;35.18
44138;BME280;29800;55.942;37.314;2023-08-07T12:40:56;99048.63;;;29.84;37.89
44138;BME280;29800;55.942;37.314;2023-08-07T12:43:23;99033.88;;;29.36;35.51
44138;BME280;29800;55.942;37.314;2023-08-07T12:45:49;99022.09;;;29.19;37.68
44138;BME280;29800;55.942;37.314;2023-08-07T12:48:16;99028.31;;;28.91;37.33
44138;BME280;29800;55.942;37.314;2023-08-07T12:50:42;99027.31;;;28.65;36.50
44138;BME280;29800;55.942;37.314;2023-08-07T12:53:08;99016.31;;;28.53;36.95